createdAt,value
2017-12-11T00:02:47.160Z,1.87
2017-12-11T00:07:49.692Z,1.27
2017-12-11T00:12:52.247Z,3.80
2017-12-11T00:17:55.558Z,4.30
2017-12-11T00:22:58.182Z,4.70
2017-12-11T00:28:01.479Z,4.13
2017-12-11T00:33:04.010Z,4.70
2017-12-11T00:38:06.541Z,4.20
2017-12-11T00:43:09.098Z,5.70
2017-12-11T00:48:11.639Z,5.10
2017-12-11T00:53:14.170Z,3.80
2017-12-11T00:58:16.715Z,4.73
2017-12-11T01:03:19.259Z,5.67
2017-12-11T01:08:21.799Z,4.60
2017-12-11T01:13:24.326Z,5.50
2017-12-11T01:18:26.878Z,5.07
2017-12-11T01:23:29.411Z,5.07
2017-12-11T01:28:31.951Z,5.73
2017-12-11T01:33:35.278Z,5.23
2017-12-11T01:38:37.836Z,5.17
2017-12-11T01:43:40.382Z,4.53
2017-12-11T01:48:42.932Z,4.17
2017-12-11T01:53:45.486Z,5.80
2017-12-11T01:58:48.063Z,4.20
2017-12-11T02:03:50.620Z,1.73
2017-12-11T02:08:53.159Z,4.90
2017-12-11T02:13:55.705Z,4.03
2017-12-11T02:18:58.259Z,3.97
2017-12-11T02:24:00.794Z,5.10
2017-12-11T02:29:03.326Z,4.97
2017-12-11T02:34:05.861Z,4.47
2017-12-11T02:39:08.395Z,4.93
2017-12-11T02:44:10.927Z,4.80
2017-12-11T02:49:13.452Z,5.80
2017-12-11T02:54:15.994Z,4.90
2017-12-11T02:59:18.527Z,6.10
2017-12-11T03:04:21.070Z,6.57
2017-12-11T03:09:23.872Z,6.07
2017-12-11T03:14:26.418Z,6.67
2017-12-11T03:19:28.947Z,4.90
2017-12-11T03:24:31.494Z,5.87
2017-12-11T03:29:34.047Z,5.13
2017-12-11T03:34:37.348Z,4.90
2017-12-11T03:39:39.930Z,4.63
2017-12-11T03:44:42.454Z,4.87
2017-12-11T03:49:45.766Z,4.53
2017-12-11T03:54:48.312Z,6.90
2017-12-11T03:59:50.840Z,5.10
2017-12-11T04:04:53.367Z,5.20
2017-12-11T04:09:55.902Z,5.83
2017-12-11T04:14:58.443Z,5.67
2017-12-11T04:20:00.979Z,5.90
2017-12-11T04:25:03.555Z,5.90
2017-12-11T04:30:06.109Z,6.70
2017-12-11T04:35:08.624Z,5.90
2017-12-11T04:40:11.178Z,7.00
2017-12-11T04:45:13.723Z,7.87
2017-12-11T04:50:16.259Z,6.47
2017-12-11T04:55:18.787Z,7.80
2017-12-11T05:00:21.326Z,8.73
2017-12-11T05:05:31.268Z,9.13
2017-12-11T05:10:34.177Z,8.00
2017-12-11T05:15:37.031Z,8.20
2017-12-11T05:20:41.160Z,8.07
2017-12-11T05:25:45.715Z,11.03
2017-12-11T05:35:59.201Z,10.27
2017-12-11T05:41:02.721Z,7.50
2017-12-11T05:46:06.735Z,8.40
2017-12-11T05:51:11.376Z,10.37
2017-12-11T05:56:15.839Z,9.43
2017-12-11T06:01:19.771Z,9.70
2017-12-11T06:06:22.444Z,10.47
2017-12-11T06:11:25.380Z,10.40
2017-12-11T06:16:28.915Z,8.93
2017-12-11T06:21:32.795Z,8.20
2017-12-11T06:26:41.954Z,9.33
2017-12-11T06:31:46.212Z,8.37
2017-12-11T06:36:49.715Z,9.90
2017-12-11T06:41:52.600Z,8.60
2017-12-11T06:46:55.916Z,7.60
2017-12-11T06:51:58.676Z,9.77
2017-12-11T06:57:02.905Z,9.70
2017-12-11T07:02:06.880Z,9.57
2017-12-11T07:07:14.503Z,9.00
2017-12-11T07:12:17.504Z,9.87
2017-12-11T07:17:20.457Z,9.93
2017-12-11T07:22:24.329Z,9.93
2017-12-11T07:27:27.668Z,10.13
2017-12-11T07:32:32.476Z,10.23
2017-12-11T07:37:35.299Z,9.90
2017-12-11T07:42:38.300Z,10.00
2017-12-11T07:47:43.100Z,10.33
2017-12-11T07:52:46.705Z,8.93
2017-12-11T07:57:53.592Z,10.20
2017-12-11T08:03:00.388Z,9.63
2017-12-11T08:08:03.341Z,8.63
2017-12-11T08:13:06.276Z,9.50
2017-12-11T08:18:09.772Z,9.10
2017-12-11T08:23:13.508Z,10.70
2017-12-11T08:28:18.207Z,9.97
2017-12-11T08:33:23.870Z,8.40
2017-12-11T08:38:29.119Z,11.97
2017-12-11T08:43:36.714Z,9.40
2017-12-11T08:48:40.516Z,6.77
2017-12-11T08:53:44.064Z,6.80
2017-12-11T08:58:49.197Z,7.00
2017-12-11T09:03:52.876Z,8.83
2017-12-11T09:08:57.969Z,7.73
2017-12-11T09:14:03.617Z,7.47
2017-12-11T09:19:09.296Z,8.10
2017-12-11T09:24:15.564Z,8.83
2017-12-11T09:29:19.990Z,7.50
2017-12-11T09:34:25.447Z,7.33
2017-12-11T09:39:30.592Z,7.73
2017-12-11T09:44:35.891Z,5.83
2017-12-11T09:49:42.112Z,7.40
2017-12-11T09:54:45.020Z,6.73
2017-12-11T09:59:49.456Z,7.57
2017-12-11T10:04:56.721Z,8.10
2017-12-11T10:10:00.911Z,7.63
2017-12-11T10:15:05.714Z,8.10
2017-12-11T10:20:12.582Z,9.17
2017-12-11T10:25:18.246Z,8.13
2017-12-11T10:30:23.120Z,7.70
2017-12-11T10:35:28.372Z,8.50
2017-12-11T10:40:32.229Z,11.00
2017-12-11T10:45:37.049Z,9.47
2017-12-11T10:50:43.714Z,10.10
2017-12-11T10:55:46.840Z,9.77
2017-12-11T11:00:49.590Z,10.20
2017-12-11T11:05:54.313Z,8.17
2017-12-11T11:10:57.759Z,10.07
2017-12-11T11:16:06.028Z,9.47
2017-12-11T11:21:11.278Z,9.63
2017-12-11T11:26:18.372Z,7.90
2017-12-11T11:31:23.788Z,8.83
2017-12-11T11:36:31.401Z,9.10
2017-12-11T11:41:35.620Z,8.80
2017-12-11T11:46:39.815Z,8.80
2017-12-11T11:51:47.017Z,8.97
2017-12-11T11:56:52.041Z,9.77
2017-12-11T12:01:56.441Z,7.63
2017-12-11T12:07:00.771Z,6.97
2017-12-11T12:12:04.832Z,6.70
2017-12-11T12:17:09.000Z,6.60
2017-12-11T12:22:11.802Z,5.93
2017-12-11T12:27:14.533Z,5.13
2017-12-11T12:32:17.981Z,5.60
2017-12-11T12:37:21.595Z,5.03
2017-12-11T12:42:24.508Z,6.00
2017-12-11T12:47:28.745Z,5.80
2017-12-11T12:52:32.388Z,5.33
2017-12-11T12:57:36.624Z,4.90
2017-12-11T13:02:39.994Z,5.30
2017-12-11T13:07:42.528Z,6.77
2017-12-11T13:12:45.083Z,5.93
2017-12-11T13:17:48.383Z,5.27
2017-12-11T13:22:50.923Z,4.60
2017-12-11T13:27:53.450Z,5.93
2017-12-11T13:32:55.999Z,5.37
2017-12-11T13:37:59.298Z,5.00
2017-12-11T13:43:01.831Z,6.07
2017-12-11T13:48:04.362Z,6.20
2017-12-11T13:53:06.899Z,7.60
2017-12-11T13:58:09.434Z,6.53
2017-12-11T14:03:11.959Z,6.70
2017-12-11T14:08:14.514Z,7.90
2017-12-11T14:13:17.060Z,7.33
2017-12-11T14:18:19.608Z,7.47
2017-12-11T14:23:22.934Z,9.33
2017-12-11T14:28:26.257Z,7.33
2017-12-11T14:33:28.795Z,7.70
2017-12-11T14:38:31.340Z,7.63
2017-12-11T14:43:37.053Z,7.80
2017-12-11T14:48:41.573Z,7.37
2017-12-11T14:53:46.503Z,7.27
2017-12-11T14:58:49.047Z,8.07
2017-12-11T15:03:51.579Z,6.60
2017-12-11T15:08:54.123Z,7.27
2017-12-11T15:13:56.664Z,6.13
2017-12-11T15:18:59.181Z,6.03
2017-12-11T15:24:01.712Z,6.97
2017-12-11T15:29:04.293Z,8.30
2017-12-11T15:34:06.778Z,7.80
2017-12-11T15:39:10.083Z,8.13
2017-12-11T15:44:12.655Z,7.10
2017-12-11T15:49:15.165Z,9.37
2017-12-11T15:54:17.712Z,8.57
2017-12-11T15:59:21.015Z,8.27
2017-12-11T16:04:24.321Z,8.03
2017-12-11T16:09:26.858Z,7.80
2017-12-11T16:14:29.390Z,8.60
2017-12-11T16:19:31.944Z,8.97
2017-12-11T16:24:35.239Z,7.97
2017-12-11T16:29:37.776Z,7.63
2017-12-11T16:34:40.290Z,7.20
2017-12-11T16:39:42.826Z,9.33
2017-12-11T16:44:45.383Z,7.10
2017-12-11T16:49:47.922Z,7.73
2017-12-11T16:54:50.471Z,8.10
2017-12-11T16:59:53.011Z,7.67
2017-12-11T17:04:55.539Z,8.40
2017-12-11T17:09:58.070Z,10.57
2017-12-11T17:15:00.615Z,9.10
2017-12-11T17:20:03.158Z,7.77
2017-12-11T17:25:05.682Z,7.53
2017-12-11T17:30:08.219Z,6.27
2017-12-11T17:35:11.533Z,6.83
2017-12-11T17:40:14.832Z,7.07
2017-12-11T17:45:17.377Z,7.03
2017-12-11T17:50:21.452Z,8.03
2017-12-11T17:55:24.166Z,8.53
2017-12-11T18:00:27.728Z,8.23
2017-12-11T18:05:33.209Z,9.17
2017-12-11T18:10:38.860Z,7.50
2017-12-11T18:15:42.453Z,7.60
2017-12-11T18:20:46.928Z,7.60
2017-12-11T18:25:50.963Z,8.73
2017-12-11T18:30:54.269Z,8.10
2017-12-11T18:36:02.205Z,12.70
2017-12-11T18:41:07.157Z,8.87
2017-12-11T18:46:11.687Z,8.47
2017-12-11T18:51:19.014Z,8.50
2017-12-11T18:56:23.608Z,8.80
2017-12-11T19:01:28.846Z,11.60
2017-12-11T19:06:35.436Z,9.17
2017-12-11T19:11:42.742Z,7.60
2017-12-11T19:16:50.009Z,8.20
2017-12-11T19:21:53.454Z,7.60
2017-12-11T19:27:01.067Z,8.53
2017-12-11T19:32:04.877Z,7.43
2017-12-11T19:37:09.494Z,8.27
2017-12-11T19:42:13.934Z,8.63
2017-12-11T19:47:21.321Z,7.67
2017-12-11T19:52:27.295Z,7.77
2017-12-11T19:57:33.664Z,6.00
2017-12-11T20:02:41.266Z,6.53
2017-12-11T20:07:48.981Z,5.80
2017-12-11T20:12:59.589Z,8.20
2017-12-11T20:18:08.413Z,8.50
2017-12-11T20:23:14.497Z,5.57
2017-12-11T20:28:20.476Z,7.20
2017-12-11T20:33:26.993Z,7.10
2017-12-11T20:43:38.539Z,6.13
2017-12-11T20:48:48.226Z,7.43
2017-12-11T20:53:55.798Z,6.33
2017-12-11T20:59:01.634Z,6.47
2017-12-11T21:04:11.665Z,6.40
2017-12-11T21:09:16.040Z,6.70
2017-12-11T21:14:23.435Z,7.50
2017-12-11T21:19:28.427Z,6.80
2017-12-11T21:24:36.441Z,7.80
2017-12-11T21:29:41.348Z,7.20
2017-12-11T21:39:58.665Z,7.63
2017-12-11T21:45:05.523Z,6.33
2017-12-11T21:50:11.446Z,6.43
2017-12-11T21:55:23.653Z,6.13
2017-12-11T22:00:28.012Z,7.63
2017-12-11T22:05:32.101Z,7.40
2017-12-11T22:10:37.796Z,5.73
2017-12-11T22:15:42.442Z,8.10
2017-12-11T22:20:49.773Z,8.77
2017-12-11T22:25:54.930Z,7.10
2017-12-11T22:36:14.321Z,8.80
2017-12-11T22:41:18.291Z,7.13
2017-12-11T22:46:26.716Z,8.00
2017-12-11T22:51:35.946Z,8.67
2017-12-11T22:56:43.072Z,7.03
2017-12-11T23:01:51.919Z,6.40
2017-12-11T23:06:58.413Z,5.53
2017-12-11T23:12:07.698Z,6.80
2017-12-11T23:17:13.074Z,6.40
2017-12-11T23:22:21.198Z,6.60
2017-12-11T23:27:27.185Z,6.30
2017-12-11T23:32:31.323Z,5.70
2017-12-11T23:42:44.539Z,6.47
2017-12-11T23:47:49.348Z,7.00
2017-12-11T23:58:17.995Z,7.13
